sensor_id;sensor_type;location;lat;lon;timestamp;P1;durP1;ratioP1;P2;durP2;ratioP2
9208;SDS011;4639;48.862;9.188;2022-12-18T00:00:20;101.13;;;51.90;;
9208;SDS011;4639;48.862;9.188;2022-12-18T00:02:46;93.10;;;49.33;;
9208;SDS011;4639;48.862;9.188;2022-12-18T00:05:11;90.70;;;49.23;;
9208;SDS011;4639;48.862;9.188;2022-12-18T00:07:39;87.67;;;49.33;;
9208;SDS011;4639;48.862;9.188;2022-12-18T00:10:05;89.03;;;49.30;;
9208;SDS011;4639;48.862;9.188;2022-12-18T00:12:31;86.33;;;48.20;;
9208;SDS011;4639;48.862;9.188;2022-12-18T00:14:56;89.37;;;48.30;;
9208;SDS011;4639;48.862;9.188;2022-12-18T00:17:22;83.07;;;47.40;;
9208;SDS011;4639;48.862;9.188;2022-12-18T00:19:47;91.87;;;49.50;;
9208;SDS011;4639;48.862;9.188;2022-12-18T00:22:13;101.87;;;51.10;;
9208;SDS011;4639;48.862;9.188;2022-12-18T00:24:39;100.67;;;51.23;;
9208;SDS011;4639;48.862;9.188;2022-12-18T00:27:04;100.50;;;51.17;;
9208;SDS011;4639;48.862;9.188;2022-12-18T00:29:30;97.30;;;51.13;;
9208;SDS011;4639;48.862;9.188;2022-12-18T00:31:55;95.37;;;48.57;;
9208;SDS011;4639;48.862;9.188;2022-12-18T00:34:21;96.93;;;49.37;;
9208;SDS011;4639;48.862;9.188;2022-12-18T00:36:47;95.63;;;50.53;;
9208;SDS011;4639;48.862;9.188;2022-12-18T00:39:13;91.57;;;50.20;;
9208;SDS011;4639;48.862;9.188;2022-12-18T00:41:38;91.50;;;50.67;;
9208;SDS011;4639;48.862;9.188;2022-12-18T00:44:22;88.00;;;50.37;;
9208;SDS011;4639;48.862;9.188;2022-12-18T00:46:48;95.37;;;49.93;;
9208;SDS011;4639;48.862;9.188;2022-12-18T00:49:15;94.40;;;48.43;;
9208;SDS011;4639;48.862;9.188;2022-12-18T00:51:43;94.60;;;48.90;;
9208;SDS011;4639;48.862;9.188;2022-12-18T00:54:09;103.60;;;52.50;;
9208;SDS011;4639;48.862;9.188;2022-12-18T00:56:35;98.97;;;50.87;;
9208;SDS011;4639;48.862;9.188;2022-12-18T00:59:02;103.43;;;52.47;;
9208;SDS011;4639;48.862;9.188;2022-12-18T01:01:28;105.37;;;52.10;;
9208;SDS011;4639;48.862;9.188;2022-12-18T01:03:53;98.17;;;53.63;;
9208;SDS011;4639;48.862;9.188;2022-12-18T01:06:19;105.47;;;52.57;;
9208;SDS011;4639;48.862;9.188;2022-12-18T01:08:44;111.90;;;53.20;;
9208;SDS011;4639;48.862;9.188;2022-12-18T01:11:11;110.80;;;53.50;;
9208;SDS011;4639;48.862;9.188;2022-12-18T01:13:39;104.17;;;50.93;;
9208;SDS011;4639;48.862;9.188;2022-12-18T01:16:05;106.97;;;55.20;;
9208;SDS011;4639;48.862;9.188;2022-12-18T01:18:30;100.87;;;52.30;;
9208;SDS011;4639;48.862;9.188;2022-12-18T01:20:56;105.03;;;50.43;;
9208;SDS011;4639;48.862;9.188;2022-12-18T01:23:21;113.70;;;56.53;;
9208;SDS011;4639;48.862;9.188;2022-12-18T01:25:47;109.07;;;54.67;;
9208;SDS011;4639;48.862;9.188;2022-12-18T01:28:13;112.63;;;55.47;;
9208;SDS011;4639;48.862;9.188;2022-12-18T01:30:38;108.13;;;54.90;;
9208;SDS011;4639;48.862;9.188;2022-12-18T01:33:04;117.63;;;56.10;;
9208;SDS011;4639;48.862;9.188;2022-12-18T01:35:30;105.07;;;51.77;;
9208;SDS011;4639;48.862;9.188;2022-12-18T01:37:56;98.73;;;47.30;;
9208;SDS011;4639;48.862;9.188;2022-12-18T01:40:22;109.87;;;53.13;;
9208;SDS011;4639;48.862;9.188;2022-12-18T01:42:51;106.97;;;53.17;;
9208;SDS011;4639;48.862;9.188;2022-12-18T01:47:51;98.43;;;48.70;;
9208;SDS011;4639;48.862;9.188;2022-12-18T01:52:47;100.87;;;48.83;;
9208;SDS011;4639;48.862;9.188;2022-12-18T01:55:17;99.47;;;48.83;;
9208;SDS011;4639;48.862;9.188;2022-12-18T01:57:47;103.37;;;49.57;;
9208;SDS011;4639;48.862;9.188;2022-12-18T02:00:15;95.57;;;46.73;;
9208;SDS011;4639;48.862;9.188;2022-12-18T02:02:43;93.27;;;48.60;;
9208;SDS011;4639;48.862;9.188;2022-12-18T02:05:11;104.43;;;51.10;;
9208;SDS011;4639;48.862;9.188;2022-12-18T02:13:21;100.77;;;48.50;;
9208;SDS011;4639;48.862;9.188;2022-12-18T02:16:00;104.97;;;47.20;;
9208;SDS011;4639;48.862;9.188;2022-12-18T02:18:39;98.47;;;46.53;;
9208;SDS011;4639;48.862;9.188;2022-12-18T02:26:58;85.13;;;41.17;;
9208;SDS011;4639;48.862;9.188;2022-12-18T02:29:38;90.60;;;45.70;;
9208;SDS011;4639;48.862;9.188;2022-12-18T02:32:09;95.80;;;46.43;;
9208;SDS011;4639;48.862;9.188;2022-12-18T02:34:39;94.67;;;45.57;;
9208;SDS011;4639;48.862;9.188;2022-12-18T02:37:07;92.13;;;45.70;;
9208;SDS011;4639;48.862;9.188;2022-12-18T02:39:38;91.37;;;47.23;;
9208;SDS011;4639;48.862;9.188;2022-12-18T02:42:06;92.70;;;45.57;;
9208;SDS011;4639;48.862;9.188;2022-12-18T02:44:33;87.53;;;45.13;;
9208;SDS011;4639;48.862;9.188;2022-12-18T02:47:00;93.47;;;42.47;;
9208;SDS011;4639;48.862;9.188;2022-12-18T02:49:41;82.93;;;43.30;;
9208;SDS011;4639;48.862;9.188;2022-12-18T02:55:01;97.67;;;45.27;;
9208;SDS011;4639;48.862;9.188;2022-12-18T03:00:19;86.60;;;41.73;;
9208;SDS011;4639;48.862;9.188;2022-12-18T03:02:57;87.90;;;44.17;;
9208;SDS011;4639;48.862;9.188;2022-12-18T03:05:30;85.73;;;41.13;;
9208;SDS011;4639;48.862;9.188;2022-12-18T03:08:07;94.17;;;43.27;;
9208;SDS011;4639;48.862;9.188;2022-12-18T03:10:42;83.47;;;41.73;;
9208;SDS011;4639;48.862;9.188;2022-12-18T03:13:25;86.13;;;42.20;;
9208;SDS011;4639;48.862;9.188;2022-12-18T03:15:56;89.33;;;44.60;;
9208;SDS011;4639;48.862;9.188;2022-12-18T03:18:25;96.63;;;47.13;;
9208;SDS011;4639;48.862;9.188;2022-12-18T03:21:03;82.17;;;43.03;;
9208;SDS011;4639;48.862;9.188;2022-12-18T03:23:34;83.70;;;44.50;;
9208;SDS011;4639;48.862;9.188;2022-12-18T03:26:06;82.20;;;41.87;;
9208;SDS011;4639;48.862;9.188;2022-12-18T03:28:38;78.03;;;41.43;;
9208;SDS011;4639;48.862;9.188;2022-12-18T03:31:09;75.07;;;41.27;;
9208;SDS011;4639;48.862;9.188;2022-12-18T03:33:38;75.93;;;40.93;;
9208;SDS011;4639;48.862;9.188;2022-12-18T03:36:08;77.63;;;41.90;;
9208;SDS011;4639;48.862;9.188;2022-12-18T03:38:34;81.90;;;43.20;;
9208;SDS011;4639;48.862;9.188;2022-12-18T03:41:06;79.43;;;41.23;;
9208;SDS011;4639;48.862;9.188;2022-12-18T03:44:04;78.63;;;40.33;;
9208;SDS011;4639;48.862;9.188;2022-12-18T03:46:41;76.00;;;39.37;;
9208;SDS011;4639;48.862;9.188;2022-12-18T03:49:17;74.60;;;39.07;;
9208;SDS011;4639;48.862;9.188;2022-12-18T03:52:13;72.10;;;37.37;;
9208;SDS011;4639;48.862;9.188;2022-12-18T03:54:46;63.13;;;34.60;;
9208;SDS011;4639;48.862;9.188;2022-12-18T03:57:18;72.57;;;36.60;;
9208;SDS011;4639;48.862;9.188;2022-12-18T03:59:47;63.90;;;35.80;;
9208;SDS011;4639;48.862;9.188;2022-12-18T04:02:17;63.87;;;35.60;;
9208;SDS011;4639;48.862;9.188;2022-12-18T04:04:43;66.47;;;36.00;;
9208;SDS011;4639;48.862;9.188;2022-12-18T04:07:11;73.07;;;38.17;;
9208;SDS011;4639;48.862;9.188;2022-12-18T04:09:38;69.10;;;37.13;;
9208;SDS011;4639;48.862;9.188;2022-12-18T04:12:06;67.23;;;35.53;;
9208;SDS011;4639;48.862;9.188;2022-12-18T04:14:31;68.13;;;35.37;;
9208;SDS011;4639;48.862;9.188;2022-12-18T04:17:00;56.90;;;33.63;;
9208;SDS011;4639;48.862;9.188;2022-12-18T04:19:26;65.33;;;35.43;;
9208;SDS011;4639;48.862;9.188;2022-12-18T04:21:52;63.43;;;34.83;;
9208;SDS011;4639;48.862;9.188;2022-12-18T04:24:17;64.83;;;34.70;;
9208;SDS011;4639;48.862;9.188;2022-12-18T04:26:43;61.30;;;33.40;;
9208;SDS011;4639;48.862;9.188;2022-12-18T04:29:08;64.03;;;35.60;;
9208;SDS011;4639;48.862;9.188;2022-12-18T04:31:34;63.10;;;35.80;;
9208;SDS011;4639;48.862;9.188;2022-12-18T04:33:59;71.87;;;36.07;;
9208;SDS011;4639;48.862;9.188;2022-12-18T04:36:25;67.10;;;34.00;;
9208;SDS011;4639;48.862;9.188;2022-12-18T04:38:50;65.20;;;34.20;;
9208;SDS011;4639;48.862;9.188;2022-12-18T04:41:16;59.73;;;32.23;;
9208;SDS011;4639;48.862;9.188;2022-12-18T04:43:42;65.97;;;35.43;;
9208;SDS011;4639;48.862;9.188;2022-12-18T04:46:08;67.87;;;38.07;;
9208;SDS011;4639;48.862;9.188;2022-12-18T04:48:34;67.97;;;38.10;;
9208;SDS011;4639;48.862;9.188;2022-12-18T04:51:00;73.63;;;38.50;;
9208;SDS011;4639;48.862;9.188;2022-12-18T04:53:26;69.80;;;37.73;;
9208;SDS011;4639;48.862;9.188;2022-12-18T04:56:01;70.60;;;35.97;;
9208;SDS011;4639;48.862;9.188;2022-12-18T04:58:38;72.57;;;37.07;;
9208;SDS011;4639;48.862;9.188;2022-12-18T05:01:04;72.80;;;37.57;;
9208;SDS011;4639;48.862;9.188;2022-12-18T05:03:31;71.63;;;38.60;;
9208;SDS011;4639;48.862;9.188;2022-12-18T05:05:56;73.97;;;39.20;;
9208;SDS011;4639;48.862;9.188;2022-12-18T05:08:22;75.27;;;37.60;;
9208;SDS011;4639;48.862;9.188;2022-12-18T05:10:48;70.47;;;37.57;;
9208;SDS011;4639;48.862;9.188;2022-12-18T05:13:14;75.33;;;39.10;;
9208;SDS011;4639;48.862;9.188;2022-12-18T05:15:39;75.03;;;38.20;;
9208;SDS011;4639;48.862;9.188;2022-12-18T05:18:06;67.50;;;38.57;;
9208;SDS011;4639;48.862;9.188;2022-12-18T05:20:33;78.17;;;36.33;;
9208;SDS011;4639;48.862;9.188;2022-12-18T05:22:58;68.63;;;36.23;;
9208;SDS011;4639;48.862;9.188;2022-12-18T05:25:24;70.23;;;45.00;;
9208;SDS011;4639;48.862;9.188;2022-12-18T05:27:50;72.73;;;45.93;;
9208;SDS011;4639;48.862;9.188;2022-12-18T05:30:15;75.63;;;42.30;;
9208;SDS011;4639;48.862;9.188;2022-12-18T05:32:41;73.37;;;45.47;;
9208;SDS011;4639;48.862;9.188;2022-12-18T05:35:07;70.30;;;37.67;;
9208;SDS011;4639;48.862;9.188;2022-12-18T05:37:35;67.60;;;35.43;;
9208;SDS011;4639;48.862;9.188;2022-12-18T05:40:01;68.10;;;36.40;;
9208;SDS011;4639;48.862;9.188;2022-12-18T05:42:28;80.60;;;39.80;;
9208;SDS011;4639;48.862;9.188;2022-12-18T05:44:53;69.27;;;37.23;;
9208;SDS011;4639;48.862;9.188;2022-12-18T05:47:19;75.10;;;37.50;;
9208;SDS011;4639;48.862;9.188;2022-12-18T05:49:44;66.03;;;43.00;;
9208;SDS011;4639;48.862;9.188;2022-12-18T05:52:10;69.20;;;44.37;;
9208;SDS011;4639;48.862;9.188;2022-12-18T05:54:35;67.53;;;42.83;;
9208;SDS011;4639;48.862;9.188;2022-12-18T05:57:01;72.93;;;36.37;;
9208;SDS011;4639;48.862;9.188;2022-12-18T05:59:27;71.03;;;37.00;;
9208;SDS011;4639;48.862;9.188;2022-12-18T06:01:52;62.73;;;33.60;;
9208;SDS011;4639;48.862;9.188;2022-12-18T06:04:18;67.33;;;34.70;;
9208;SDS011;4639;48.862;9.188;2022-12-18T06:06:43;66.43;;;35.60;;
9208;SDS011;4639;48.862;9.188;2022-12-18T06:09:09;69.73;;;36.00;;
9208;SDS011;4639;48.862;9.188;2022-12-18T06:11:35;63.70;;;34.67;;
9208;SDS011;4639;48.862;9.188;2022-12-18T06:14:02;60.73;;;39.00;;
9208;SDS011;4639;48.862;9.188;2022-12-18T06:16:29;61.93;;;32.97;;
9208;SDS011;4639;48.862;9.188;2022-12-18T06:18:56;65.57;;;34.00;;
9208;SDS011;4639;48.862;9.188;2022-12-18T06:21:22;66.73;;;33.53;;
9208;SDS011;4639;48.862;9.188;2022-12-18T06:23:47;65.27;;;33.53;;
9208;SDS011;4639;48.862;9.188;2022-12-18T06:26:13;62.57;;;39.03;;
9208;SDS011;4639;48.862;9.188;2022-12-18T06:28:39;59.37;;;39.57;;
9208;SDS011;4639;48.862;9.188;2022-12-18T06:31:05;69.87;;;34.70;;
9208;SDS011;4639;48.862;9.188;2022-12-18T06:33:31;69.33;;;40.80;;
9208;SDS011;4639;48.862;9.188;2022-12-18T06:36:02;66.43;;;33.23;;
9208;SDS011;4639;48.862;9.188;2022-12-18T06:38:29;62.33;;;35.97;;
9208;SDS011;4639;48.862;9.188;2022-12-18T06:40:55;66.70;;;35.20;;
9208;SDS011;4639;48.862;9.188;2022-12-18T06:43:21;63.43;;;34.77;;
9208;SDS011;4639;48.862;9.188;2022-12-18T06:45:47;63.57;;;33.77;;
9208;SDS011;4639;48.862;9.188;2022-12-18T06:48:17;62.03;;;40.30;;
9208;SDS011;4639;48.862;9.188;2022-12-18T06:50:46;61.23;;;39.27;;
9208;SDS011;4639;48.862;9.188;2022-12-18T06:53:11;63.70;;;33.70;;
9208;SDS011;4639;48.862;9.188;2022-12-18T06:55:37;75.07;;;47.20;;
9208;SDS011;4639;48.862;9.188;2022-12-18T06:58:03;60.93;;;33.63;;
9208;SDS011;4639;48.862;9.188;2022-12-18T07:00:28;56.87;;;32.00;;
9208;SDS011;4639;48.862;9.188;2022-12-18T07:02:54;65.80;;;40.93;;
9208;SDS011;4639;48.862;9.188;2022-12-18T07:05:19;60.47;;;40.57;;
9208;SDS011;4639;48.862;9.188;2022-12-18T07:07:45;64.90;;;32.47;;
9208;SDS011;4639;48.862;9.188;2022-12-18T07:10:10;60.27;;;33.80;;
9208;SDS011;4639;48.862;9.188;2022-12-18T07:12:36;58.80;;;32.47;;
9208;SDS011;4639;48.862;9.188;2022-12-18T07:15:02;57.40;;;32.10;;
9208;SDS011;4639;48.862;9.188;2022-12-18T07:17:28;56.83;;;30.80;;
9208;SDS011;4639;48.862;9.188;2022-12-18T07:19:54;53.50;;;31.30;;
9208;SDS011;4639;48.862;9.188;2022-12-18T07:22:20;56.53;;;31.87;;
9208;SDS011;4639;48.862;9.188;2022-12-18T07:24:46;58.43;;;32.30;;
9208;SDS011;4639;48.862;9.188;2022-12-18T07:27:11;56.30;;;32.03;;
9208;SDS011;4639;48.862;9.188;2022-12-18T07:29:37;51.93;;;31.77;;
9208;SDS011;4639;48.862;9.188;2022-12-18T07:32:02;55.43;;;32.30;;
9208;SDS011;4639;48.862;9.188;2022-12-18T07:34:28;53.60;;;36.70;;
9208;SDS011;4639;48.862;9.188;2022-12-18T07:36:54;62.33;;;39.50;;
9208;SDS011;4639;48.862;9.188;2022-12-18T07:39:19;53.67;;;32.43;;
9208;SDS011;4639;48.862;9.188;2022-12-18T07:41:45;52.43;;;29.70;;
9208;SDS011;4639;48.862;9.188;2022-12-18T07:44:30;51.83;;;31.20;;
9208;SDS011;4639;48.862;9.188;2022-12-18T07:46:56;51.07;;;29.90;;
9208;SDS011;4639;48.862;9.188;2022-12-18T07:49:21;54.33;;;31.77;;
9208;SDS011;4639;48.862;9.188;2022-12-18T07:51:47;51.80;;;30.70;;
9208;SDS011;4639;48.862;9.188;2022-12-18T07:54:14;50.83;;;30.13;;
9208;SDS011;4639;48.862;9.188;2022-12-18T07:56:39;51.27;;;31.60;;
9208;SDS011;4639;48.862;9.188;2022-12-18T07:59:05;54.63;;;31.97;;
9208;SDS011;4639;48.862;9.188;2022-12-18T08:01:30;58.03;;;34.20;;
9208;SDS011;4639;48.862;9.188;2022-12-18T08:03:57;55.53;;;32.43;;
9208;SDS011;4639;48.862;9.188;2022-12-18T08:06:23;57.97;;;33.10;;
9208;SDS011;4639;48.862;9.188;2022-12-18T08:08:50;51.80;;;31.53;;
9208;SDS011;4639;48.862;9.188;2022-12-18T08:11:19;50.50;;;30.10;;
9208;SDS011;4639;48.862;9.188;2022-12-18T08:13:45;61.50;;;34.37;;
9208;SDS011;4639;48.862;9.188;2022-12-18T08:16:11;58.90;;;33.50;;
9208;SDS011;4639;48.862;9.188;2022-12-18T08:18:36;58.70;;;35.10;;
9208;SDS011;4639;48.862;9.188;2022-12-18T08:21:09;57.53;;;32.17;;
9208;SDS011;4639;48.862;9.188;2022-12-18T08:23:40;57.37;;;32.60;;
9208;SDS011;4639;48.862;9.188;2022-12-18T08:26:06;53.63;;;30.17;;
9208;SDS011;4639;48.862;9.188;2022-12-18T08:28:31;55.53;;;33.33;;
9208;SDS011;4639;48.862;9.188;2022-12-18T08:30:57;58.47;;;31.30;;
9208;SDS011;4639;48.862;9.188;2022-12-18T08:33:23;49.73;;;30.97;;
9208;SDS011;4639;48.862;9.188;2022-12-18T08:35:49;51.77;;;30.63;;
9208;SDS011;4639;48.862;9.188;2022-12-18T08:38:14;50.37;;;28.80;;
9208;SDS011;4639;48.862;9.188;2022-12-18T08:40:40;54.70;;;32.00;;
9208;SDS011;4639;48.862;9.188;2022-12-18T08:43:06;53.63;;;32.37;;
9208;SDS011;4639;48.862;9.188;2022-12-18T08:45:53;52.00;;;30.77;;
9208;SDS011;4639;48.862;9.188;2022-12-18T08:48:19;50.47;;;30.17;;
9208;SDS011;4639;48.862;9.188;2022-12-18T08:50:52;53.10;;;31.57;;
9208;SDS011;4639;48.862;9.188;2022-12-18T08:53:19;52.37;;;33.83;;
9208;SDS011;4639;48.862;9.188;2022-12-18T08:55:44;54.23;;;30.97;;
9208;SDS011;4639;48.862;9.188;2022-12-18T08:58:10;58.87;;;33.57;;
9208;SDS011;4639;48.862;9.188;2022-12-18T09:00:35;53.53;;;33.17;;
9208;SDS011;4639;48.862;9.188;2022-12-18T09:03:01;54.93;;;33.27;;
9208;SDS011;4639;48.862;9.188;2022-12-18T09:05:26;52.87;;;31.07;;
9208;SDS011;4639;48.862;9.188;2022-12-18T09:07:52;51.77;;;31.53;;
9208;SDS011;4639;48.862;9.188;2022-12-18T09:10:18;54.23;;;31.10;;
9208;SDS011;4639;48.862;9.188;2022-12-18T09:12:43;50.60;;;32.47;;
9208;SDS011;4639;48.862;9.188;2022-12-18T09:15:09;50.87;;;32.47;;
9208;SDS011;4639;48.862;9.188;2022-12-18T09:17:34;49.60;;;30.83;;
9208;SDS011;4639;48.862;9.188;2022-12-18T09:20:00;48.37;;;31.03;;
9208;SDS011;4639;48.862;9.188;2022-12-18T09:22:26;50.47;;;31.63;;
9208;SDS011;4639;48.862;9.188;2022-12-18T09:24:51;51.90;;;31.33;;
9208;SDS011;4639;48.862;9.188;2022-12-18T09:27:17;53.07;;;31.37;;
9208;SDS011;4639;48.862;9.188;2022-12-18T09:29:42;52.57;;;30.77;;
9208;SDS011;4639;48.862;9.188;2022-12-18T09:32:08;50.53;;;31.53;;
9208;SDS011;4639;48.862;9.188;2022-12-18T09:34:33;50.43;;;31.27;;
9208;SDS011;4639;48.862;9.188;2022-12-18T09:36:59;52.47;;;30.63;;
9208;SDS011;4639;48.862;9.188;2022-12-18T09:39:24;46.07;;;28.50;;
9208;SDS011;4639;48.862;9.188;2022-12-18T09:41:51;46.10;;;29.97;;
9208;SDS011;4639;48.862;9.188;2022-12-18T09:49:24;54.50;;;32.03;;
9208;SDS011;4639;48.862;9.188;2022-12-18T09:51:56;46.53;;;29.60;;
9208;SDS011;4639;48.862;9.188;2022-12-18T09:54:33;46.80;;;28.87;;
9208;SDS011;4639;48.862;9.188;2022-12-18T09:57:06;45.00;;;29.83;;
9208;SDS011;4639;48.862;9.188;2022-12-18T09:59:38;44.97;;;28.07;;
9208;SDS011;4639;48.862;9.188;2022-12-18T10:02:13;45.33;;;30.03;;
9208;SDS011;4639;48.862;9.188;2022-12-18T10:04:44;48.17;;;29.93;;
9208;SDS011;4639;48.862;9.188;2022-12-18T10:10:35;42.37;;;29.07;;
9208;SDS011;4639;48.862;9.188;2022-12-18T10:21:11;47.43;;;29.73;;
9208;SDS011;4639;48.862;9.188;2022-12-18T10:24:02;43.03;;;28.47;;
9208;SDS011;4639;48.862;9.188;2022-12-18T10:26:40;43.87;;;28.27;;
9208;SDS011;4639;48.862;9.188;2022-12-18T10:29:09;42.70;;;28.13;;
9208;SDS011;4639;48.862;9.188;2022-12-18T10:31:37;44.73;;;27.73;;
9208;SDS011;4639;48.862;9.188;2022-12-18T10:34:03;42.93;;;27.43;;
9208;SDS011;4639;48.862;9.188;2022-12-18T10:36:28;45.23;;;27.13;;
9208;SDS011;4639;48.862;9.188;2022-12-18T10:38:58;46.40;;;27.80;;
9208;SDS011;4639;48.862;9.188;2022-12-18T10:41:49;40.20;;;24.65;;
9208;SDS011;4639;48.862;9.188;2022-12-18T10:44:16;39.83;;;26.27;;
9208;SDS011;4639;48.862;9.188;2022-12-18T10:46:50;43.03;;;27.07;;
9208;SDS011;4639;48.862;9.188;2022-12-18T10:49:25;41.03;;;26.07;;
9208;SDS011;4639;48.862;9.188;2022-12-18T10:52:04;40.47;;;27.10;;
9208;SDS011;4639;48.862;9.188;2022-12-18T10:54:32;44.03;;;26.27;;
9208;SDS011;4639;48.862;9.188;2022-12-18T10:57:15;45.30;;;25.90;;
9208;SDS011;4639;48.862;9.188;2022-12-18T10:59:52;40.33;;;23.80;;
9208;SDS011;4639;48.862;9.188;2022-12-18T11:02:37;39.50;;;24.97;;
9208;SDS011;4639;48.862;9.188;2022-12-18T11:05:22;41.07;;;26.87;;
9208;SDS011;4639;48.862;9.188;2022-12-18T11:07:49;39.30;;;24.50;;
9208;SDS011;4639;48.862;9.188;2022-12-18T11:10:19;40.87;;;24.87;;
9208;SDS011;4639;48.862;9.188;2022-12-18T11:13:18;39.80;;;26.13;;
9208;SDS011;4639;48.862;9.188;2022-12-18T11:15:46;38.07;;;24.87;;
9208;SDS011;4639;48.862;9.188;2022-12-18T11:20:50;41.20;;;24.13;;
9208;SDS011;4639;48.862;9.188;2022-12-18T11:23:24;40.83;;;24.03;;
9208;SDS011;4639;48.862;9.188;2022-12-18T11:25:57;36.93;;;23.27;;
9208;SDS011;4639;48.862;9.188;2022-12-18T11:28:26;39.80;;;25.77;;
9208;SDS011;4639;48.862;9.188;2022-12-18T11:31:11;38.67;;;24.73;;
9208;SDS011;4639;48.862;9.188;2022-12-18T11:36:52;38.43;;;23.47;;
9208;SDS011;4639;48.862;9.188;2022-12-18T11:39:34;41.40;;;25.23;;
9208;SDS011;4639;48.862;9.188;2022-12-18T11:42:14;39.17;;;25.90;;
9208;SDS011;4639;48.862;9.188;2022-12-18T11:44:50;38.43;;;24.07;;
9208;SDS011;4639;48.862;9.188;2022-12-18T11:47:19;40.47;;;25.70;;
9208;SDS011;4639;48.862;9.188;2022-12-18T11:49:53;38.00;;;25.03;;
9208;SDS011;4639;48.862;9.188;2022-12-18T11:52:26;41.20;;;26.37;;
9208;SDS011;4639;48.862;9.188;2022-12-18T11:55:00;40.97;;;26.70;;
9208;SDS011;4639;48.862;9.188;2022-12-18T12:13:43;42.80;;;26.90;;
9208;SDS011;4639;48.862;9.188;2022-12-18T12:16:22;43.85;;;27.00;;
9208;SDS011;4639;48.862;9.188;2022-12-18T12:22:11;39.90;;;25.60;;
9208;SDS011;4639;48.862;9.188;2022-12-18T12:25:17;52.27;;;36.70;;
9208;SDS011;4639;48.862;9.188;2022-12-18T12:37:03;41.07;;;26.47;;
9208;SDS011;4639;48.862;9.188;2022-12-18T12:39:27;39.53;;;25.63;;
9208;SDS011;4639;48.862;9.188;2022-12-18T12:42:08;45.80;;;27.60;;
9208;SDS011;4639;48.862;9.188;2022-12-18T12:44:58;41.73;;;26.60;;
9208;SDS011;4639;48.862;9.188;2022-12-18T12:47:30;42.20;;;27.00;;
9208;SDS011;4639;48.862;9.188;2022-12-18T12:50:02;46.37;;;26.97;;
9208;SDS011;4639;48.862;9.188;2022-12-18T12:52:33;42.67;;;27.10;;
9208;SDS011;4639;48.862;9.188;2022-12-18T12:55:04;41.67;;;27.03;;
9208;SDS011;4639;48.862;9.188;2022-12-18T12:57:37;42.53;;;25.77;;
9208;SDS011;4639;48.862;9.188;2022-12-18T13:05:23;42.43;;;25.53;;
9208;SDS011;4639;48.862;9.188;2022-12-18T13:07:51;38.38;;;25.20;;
9208;SDS011;4639;48.862;9.188;2022-12-18T13:10:26;42.50;;;26.60;;
9208;SDS011;4639;48.862;9.188;2022-12-18T13:15:41;39.53;;;25.83;;
9208;SDS011;4639;48.862;9.188;2022-12-18T13:20:34;41.22;;;25.27;;
9208;SDS011;4639;48.862;9.188;2022-12-18T13:25:49;41.47;;;25.60;;
9208;SDS011;4639;48.862;9.188;2022-12-18T13:31:57;38.75;;;24.88;;
9208;SDS011;4639;48.862;9.188;2022-12-18T13:36:49;41.53;;;26.23;;
9208;SDS011;4639;48.862;9.188;2022-12-18T13:41:44;52.87;;;30.50;;
9208;SDS011;4639;48.862;9.188;2022-12-18T13:46:51;39.20;;;24.57;;
9208;SDS011;4639;48.862;9.188;2022-12-18T13:51:49;41.37;;;25.10;;
9208;SDS011;4639;48.862;9.188;2022-12-18T13:54:19;41.77;;;25.27;;
9208;SDS011;4639;48.862;9.188;2022-12-18T13:56:49;39.23;;;25.37;;
9208;SDS011;4639;48.862;9.188;2022-12-18T14:01:58;43.27;;;26.43;;
9208;SDS011;4639;48.862;9.188;2022-12-18T14:04:32;38.73;;;25.27;;
9208;SDS011;4639;48.862;9.188;2022-12-18T14:09:43;42.37;;;25.87;;
9208;SDS011;4639;48.862;9.188;2022-12-18T14:12:16;42.10;;;26.97;;
9208;SDS011;4639;48.862;9.188;2022-12-18T14:15:04;47.40;;;30.00;;
9208;SDS011;4639;48.862;9.188;2022-12-18T14:17:36;46.53;;;27.77;;
9208;SDS011;4639;48.862;9.188;2022-12-18T14:20:01;47.77;;;28.13;;
9208;SDS011;4639;48.862;9.188;2022-12-18T14:22:27;48.40;;;29.27;;
9208;SDS011;4639;48.862;9.188;2022-12-18T14:28:13;43.33;;;24.83;;
9208;SDS011;4639;48.862;9.188;2022-12-18T14:30:41;43.00;;;25.63;;
9208;SDS011;4639;48.862;9.188;2022-12-18T14:35:57;41.30;;;27.17;;
9208;SDS011;4639;48.862;9.188;2022-12-18T14:38:58;48.07;;;25.93;;
9208;SDS011;4639;48.862;9.188;2022-12-18T14:41:23;43.97;;;26.30;;
9208;SDS011;4639;48.862;9.188;2022-12-18T14:43:50;43.03;;;27.07;;
9208;SDS011;4639;48.862;9.188;2022-12-18T14:46:28;43.50;;;26.43;;
9208;SDS011;4639;48.862;9.188;2022-12-18T14:48:57;43.07;;;27.70;;
9208;SDS011;4639;48.862;9.188;2022-12-18T14:51:26;44.23;;;27.93;;
9208;SDS011;4639;48.862;9.188;2022-12-18T14:53:55;47.23;;;27.63;;
9208;SDS011;4639;48.862;9.188;2022-12-18T14:56:29;45.10;;;28.47;;
9208;SDS011;4639;48.862;9.188;2022-12-18T14:59:00;46.80;;;28.83;;
9208;SDS011;4639;48.862;9.188;2022-12-18T15:01:35;44.73;;;28.60;;
9208;SDS011;4639;48.862;9.188;2022-12-18T15:04:03;48.53;;;29.33;;
9208;SDS011;4639;48.862;9.188;2022-12-18T15:06:31;50.03;;;29.43;;
9208;SDS011;4639;48.862;9.188;2022-12-18T15:08:58;48.30;;;29.37;;
9208;SDS011;4639;48.862;9.188;2022-12-18T15:11:26;46.37;;;28.73;;
9208;SDS011;4639;48.862;9.188;2022-12-18T15:14:22;49.77;;;28.83;;
9208;SDS011;4639;48.862;9.188;2022-12-18T15:17:05;54.03;;;31.07;;
9208;SDS011;4639;48.862;9.188;2022-12-18T15:19:40;53.73;;;31.63;;
9208;SDS011;4639;48.862;9.188;2022-12-18T15:22:17;52.00;;;32.10;;
9208;SDS011;4639;48.862;9.188;2022-12-18T15:24:43;51.33;;;29.63;;
9208;SDS011;4639;48.862;9.188;2022-12-18T15:30:18;53.57;;;30.20;;
9208;SDS011;4639;48.862;9.188;2022-12-18T15:32:45;54.40;;;31.27;;
9208;SDS011;4639;48.862;9.188;2022-12-18T15:35:19;55.70;;;32.83;;
9208;SDS011;4639;48.862;9.188;2022-12-18T15:37:46;52.27;;;32.20;;
9208;SDS011;4639;48.862;9.188;2022-12-18T15:40:13;49.77;;;32.20;;
9208;SDS011;4639;48.862;9.188;2022-12-18T15:42:41;53.30;;;31.63;;
9208;SDS011;4639;48.862;9.188;2022-12-18T15:45:25;55.00;;;33.17;;
9208;SDS011;4639;48.862;9.188;2022-12-18T15:47:51;56.93;;;33.30;;
9208;SDS011;4639;48.862;9.188;2022-12-18T15:50:17;56.13;;;33.53;;
9208;SDS011;4639;48.862;9.188;2022-12-18T15:52:43;59.27;;;33.37;;
9208;SDS011;4639;48.862;9.188;2022-12-18T15:55:15;58.63;;;33.00;;
9208;SDS011;4639;48.862;9.188;2022-12-18T15:58:00;57.97;;;33.13;;
9208;SDS011;4639;48.862;9.188;2022-12-18T16:00:26;58.07;;;34.80;;
9208;SDS011;4639;48.862;9.188;2022-12-18T16:02:52;59.50;;;35.07;;
9208;SDS011;4639;48.862;9.188;2022-12-18T16:05:18;58.27;;;35.50;;
9208;SDS011;4639;48.862;9.188;2022-12-18T16:07:45;61.03;;;36.77;;
9208;SDS011;4639;48.862;9.188;2022-12-18T16:10:11;61.63;;;35.37;;
9208;SDS011;4639;48.862;9.188;2022-12-18T16:12:37;61.33;;;36.27;;
9208;SDS011;4639;48.862;9.188;2022-12-18T16:15:04;61.70;;;37.57;;
9208;SDS011;4639;48.862;9.188;2022-12-18T16:17:30;62.53;;;37.73;;
9208;SDS011;4639;48.862;9.188;2022-12-18T16:19:56;60.90;;;35.93;;
9208;SDS011;4639;48.862;9.188;2022-12-18T16:22:22;76.90;;;43.40;;
9208;SDS011;4639;48.862;9.188;2022-12-18T16:24:51;64.77;;;37.47;;
9208;SDS011;4639;48.862;9.188;2022-12-18T16:27:17;59.93;;;36.67;;
9208;SDS011;4639;48.862;9.188;2022-12-18T16:29:44;62.03;;;36.90;;
9208;SDS011;4639;48.862;9.188;2022-12-18T16:32:20;61.73;;;35.17;;
9208;SDS011;4639;48.862;9.188;2022-12-18T16:34:46;57.53;;;34.50;;
9208;SDS011;4639;48.862;9.188;2022-12-18T16:37:13;60.23;;;36.73;;
9208;SDS011;4639;48.862;9.188;2022-12-18T16:39:40;68.03;;;35.40;;
9208;SDS011;4639;48.862;9.188;2022-12-18T16:44:41;63.27;;;35.17;;
9208;SDS011;4639;48.862;9.188;2022-12-18T16:47:07;65.80;;;35.90;;
9208;SDS011;4639;48.862;9.188;2022-12-18T16:49:33;57.83;;;35.17;;
9208;SDS011;4639;48.862;9.188;2022-12-18T16:51:59;61.10;;;34.83;;
9208;SDS011;4639;48.862;9.188;2022-12-18T16:54:24;61.17;;;36.07;;